Time;durP1;ratioP1;P1;durP2;ratioP2;P2;SDS_P1;SDS_P2;PMS_P1;PMS_P2;Temp;Humidity;BMP_temperature;BMP_pressure;BME280_temperature;BME280_humidity;BME280_pressure;Samples;Min_cycle;Max_cycle;Signal;HPM_P1;HPM_P2
2023/02/02 00:01:48;;;;;;;23.50;14.05;;;;;;;1.38;100.00;100216.47;5093385;28;20134;-75
2023/02/02 00:04:28;;;;;;;19.20;11.75;;;;;;;2.04;100.00;100348.38;5093322;28;20032;-74
2023/02/02 00:06:56;;;;;;;30.40;15.98;;;;;;;1.93;100.00;100365.78;5092595;28;20047;-74
2023/02/02 00:09:22;;;;;;;56.78;26.27;;;;;;;1.39;100.00;100183.06;5092100;28;20064;-76
2023/02/02 00:11:49;;;;;;;30.85;16.42;;;;;;;2.09;100.00;100344.25;5093130;28;20024;-75
2023/02/02 00:14:16;;;;;;;29.48;15.95;;;;;;;1.64;100.00;100262.69;5093065;28;20023;-74
2023/02/02 00:16:49;;;;;;;23.95;14.13;;;;;;;1.31;100.00;100259.75;5091997;28;20024;-76
2023/02/02 00:19:21;;;;;;;22.05;14.63;;;;;;;1.36;100.00;100250.66;5091421;28;20055;-76
2023/02/02 00:21:46;;;;;;;;;;;;;;;2.17;100.00;100337.66;5093678;28;20536;-76
2023/02/02 00:24:14;;;;;;;21.10;13.55;;;;;;;1.46;100.00;100267.47;5092839;28;19986;-76
2023/02/02 00:26:44;;;;;;;21.60;13.60;;;;;;;1.69;100.00;100336.25;5091610;28;20062;-76
2023/02/02 00:29:16;;;;;;;21.55;13.40;;;;;;;1.84;100.00;100340.63;5092087;28;20024;-75
2023/02/02 00:31:41;;;;;;;19.58;13.15;;;;;;;2.23;100.00;100345.25;5091985;28;20131;-76
2023/02/02 00:34:08;;;;;;;22.05;14.73;;;;;;;2.32;100.00;100370.44;5091835;28;20152;-76
2023/02/02 00:36:34;;;;;;;20.98;15.48;;;;;;;1.67;100.00;100287.78;5092755;28;20028;-76
2023/02/02 00:38:59;;;;;;;22.77;14.95;;;;;;;1.76;100.00;100264.50;5091574;28;20041;-75
2023/02/02 00:41:24;;;;;;;22.25;12.75;;;;;;;1.97;100.00;100311.53;5125275;27;20131;-76
2023/02/02 00:45:14;;;;;;;20.50;13.20;;;;;;;1.28;100.00;100202.13;5091602;28;20456;-75
2023/02/02 00:46:38;;;;;;;21.85;14.00;;;;;;;2.17;100.00;100358.56;5092066;28;20115;-76
2023/02/02 00:49:04;;;;;;;22.88;13.88;;;;;;;1.60;100.00;100270.16;5091305;28;20379;-76
2023/02/02 00:51:29;;;;;;;20.33;13.18;;;;;;;1.53;100.00;100270.88;5124373;27;20039;-75
2023/02/02 00:53:55;;;;;;;24.35;14.10;;;;;;;1.67;100.00;100257.72;5091209;28;20685;-75
2023/02/02 00:56:20;;;;;;;23.45;14.75;;;;;;;2.45;100.00;100352.19;5092442;28;20032;-76
2023/02/02 00:58:45;;;;;;;19.88;12.15;;;;;;;2.18;100.00;100339.38;5092150;28;20043;-76
2023/02/02 01:01:20;;;;;;;20.20;11.73;;;;;;;2.02;100.00;100353.34;5090917;28;20084;-75
2023/02/02 01:03:46;;;;;;;17.23;10.43;;;;;;;2.19;100.00;100366.09;5090368;28;20057;-76
2023/02/02 01:06:12;;;;;;;14.48;10.25;;;;;;;1.70;100.00;100300.34;5090908;28;20028;-75
2023/02/02 01:08:38;;;;;;;13.18;8.68;;;;;;;2.00;100.00;100327.44;5091702;28;20501;-76
2023/02/02 01:11:04;;;;;;;13.43;8.93;;;;;;;1.75;100.00;100255.31;5090710;28;20127;-75
2023/02/02 01:13:29;;;;;;;15.77;8.95;;;;;;;1.87;100.00;100257.09;5091831;28;20035;-76
2023/02/02 01:15:59;;;;;;;15.38;9.52;;;;;;;2.07;100.00;100328.34;5092227;28;20024;-76
2023/02/02 01:18:25;;;;;;;18.38;10.50;;;;;;;2.40;100.00;100332.06;5090520;28;20104;-76
2023/02/02 01:21:02;;;;;;;15.35;10.10;;;;;;;2.14;100.00;100332.63;5087830;28;20024;-76
2023/02/02 01:23:28;;;;;;;17.25;11.27;;;;;;;2.27;100.00;100327.75;5071298;28;20040;-76
2023/02/02 01:25:59;;;;;;;18.20;11.60;;;;;;;2.24;100.00;100336.94;5071169;28;20082;-76
2023/02/02 01:28:25;;;;;;;19.00;10.50;;;;;;;1.43;100.00;100259.91;5070405;28;20028;-76
2023/02/02 01:30:51;;;;;;;18.77;11.55;;;;;;;1.60;100.00;100273.50;5104653;28;20490;-75
2023/02/02 01:33:18;;;;;;;18.48;12.77;;;;;;;2.00;100.00;100365.03;5071659;28;20097;-75
2023/02/02 01:35:48;;;;;;;17.08;12.05;;;;;;;1.37;100.00;100269.00;5104565;28;20045;-75
2023/02/02 01:38:14;;;;;;;12.57;8.88;;;;;;;2.22;100.00;100353.63;5072155;28;20029;-75
2023/02/02 01:40:48;;;;;;;15.80;11.50;;;;;;;1.72;100.00;100296.19;5070602;28;20414;-75
2023/02/02 01:43:23;;;;;;;15.40;11.13;;;;;;;2.40;100.00;100393.94;5070735;28;20039;-75
2023/02/02 01:45:50;;;;;;;17.20;11.77;;;;;;;2.26;100.00;100385.41;5071834;28;20029;-76
2023/02/02 01:48:16;;;;;;;15.43;11.60;;;;;;;2.49;100.00;100371.47;5071755;28;20028;-76
2023/02/02 01:50:42;;;;;;;18.35;11.63;;;;;;;2.42;100.00;100362.19;5071699;28;20079;-76
2023/02/02 01:53:08;;;;;;;19.33;14.20;;;;;;;2.23;100.00;100331.06;5071356;28;20032;-76
2023/02/02 01:55:37;;;;;;;25.05;15.90;;;;;;;2.03;100.00;100331.66;5071461;28;20442;-76
2023/02/02 01:58:10;;;;;;;25.63;15.43;;;;;;;2.06;100.00;100336.72;5071935;28;20102;-77
2023/02/02 02:00:38;;;;;;;21.42;14.85;;;;;;;2.05;100.00;100338.38;5071415;28;20032;-77
2023/02/02 02:03:10;;;;;;;16.80;11.80;;;;;;;2.10;100.00;100344.25;5071387;28;20028;-74
2023/02/02 02:05:42;;;;;;;16.25;11.10;;;;;;;1.39;100.00;100215.63;5103717;28;20128;-74
2023/02/02 02:08:39;;;;;;;16.02;11.38;;;;;;;2.12;100.00;100346.81;5071102;28;20029;-75
2023/02/02 02:11:05;;;;;;;15.40;10.65;;;;;;;1.67;100.00;100299.47;5071050;28;20059;-75
2023/02/02 02:16:30;;;;;;;15.60;10.82;;;;;;;2.01;100.00;100348.34;5071247;28;20430;-73
2023/02/02 02:19:08;;;;;;;13.57;9.52;;;;;;;2.02;100.00;100355.03;5071415;28;20039;-74
2023/02/02 02:28:04;;;;;;;13.57;8.43;;;;;;;2.06;100.00;100349.25;5071264;28;20129;-74
2023/02/02 02:30:35;;;;;;;15.02;8.98;;;;;;;1.90;100.00;100373.28;5070096;28;20459;-75
2023/02/02 02:33:06;;;;;;;13.43;8.35;;;;;;;1.30;100.00;100354.88;5071142;28;20029;-75
2023/02/02 02:35:31;;;;;;;11.40;8.00;;;;;;;1.64;100.00;100352.03;5070711;28;20438;-74
2023/02/02 02:38:23;;;;;;;10.88;8.15;;;;;;;1.61;100.00;100347.81;5070303;28;20029;-75
2023/02/02 02:40:54;;;;;;;12.23;8.85;;;;;;;1.47;100.00;100313.38;5072334;28;20037;-75
2023/02/02 02:43:26;;;;;;;13.20;8.35;;;;;;;1.78;100.00;100343.88;5074492;28;20035;-75
2023/02/02 02:45:52;;;;;;;15.35;9.95;;;;;;;1.70;100.00;100350.44;5074648;28;20102;-75
2023/02/02 02:48:17;;;;;;;13.77;10.05;;;;;;;1.89;100.00;100334.00;5074865;28;20033;-75
2023/02/02 02:50:43;;;;;;;17.55;10.82;;;;;;;1.69;100.00;100316.19;5074524;28;20086;-75
2023/02/02 02:53:18;;;;;;;15.82;10.85;;;;;;;0.78;100.00;100178.94;5074459;28;20021;-75
2023/02/02 02:55:44;;;;;;;29.70;17.25;;;;;;;2.04;100.00;100356.72;5073407;28;20029;-75
2023/02/02 02:58:17;;;;;;;16.42;11.45;;;;;;;1.88;100.00;100284.72;5074403;28;20113;-75
2023/02/02 03:01:13;;;;;;;17.27;11.43;;;;;;;1.93;100.00;100307.28;5073081;28;20029;-76
2023/02/02 03:03:52;;;;;;;113.22;55.08;;;;;;;0.58;100.00;100110.28;5075005;28;20029;-75
2023/02/02 03:06:33;;;;;;;34.60;21.58;;;;;;;1.63;100.00;100315.28;5075022;28;20086;-76
2023/02/02 03:09:09;;;;;;;22.83;14.50;;;;;;;1.60;100.00;100310.25;5074188;28;20131;-76
2023/02/02 03:11:36;;;;;;;21.67;13.40;;;;;;;1.27;100.00;100233.00;5074506;28;20043;-75
2023/02/02 03:14:02;;;;;;;22.27;13.30;;;;;;;1.41;100.00;100304.13;5074489;28;20040;-75
2023/02/02 03:16:27;;;;;;;30.38;19.65;;;;;;;0.90;100.00;100245.81;5073325;28;20028;-74
2023/02/02 03:18:54;;;;;;;44.53;29.15;;;;;;;0.88;100.00;100323.34;5090292;28;20031;-75
2023/02/02 03:21:20;;;;;;;18.13;11.90;;;;;;;0.92;100.00;100311.72;5094419;28;20031;-73
2023/02/02 03:23:46;;;;;;;20.75;14.80;;;;;;;0.15;100.00;100164.59;5093014;28;20032;-75
2023/02/02 03:26:11;;;;;;;21.85;16.05;;;;;;;0.81;100.00;100269.03;5092973;28;20130;-75
2023/02/02 03:28:36;;;;;;;29.95;20.70;;;;;;;1.12;100.00;100295.38;5094030;28;20039;-74
2023/02/02 03:31:02;;;;;;;26.85;19.38;;;;;;;0.59;100.00;100211.16;5092869;28;20028;-75
2023/02/02 03:33:29;;;;;;;18.33;12.60;;;;;;;1.04;100.00;100251.88;5093820;28;20042;-74
2023/02/02 03:35:54;;;;;;;14.20;9.48;;;;;;;1.19;100.00;100306.31;5093798;28;20032;-75
2023/02/02 03:38:20;;;;;;;19.17;11.25;;;;;;;0.97;100.00;100216.72;5092152;28;20053;-74
2023/02/02 03:40:45;;;;;;;16.83;11.35;;;;;;;1.13;100.00;100273.69;5093201;28;20566;-76
2023/02/02 03:43:11;;;;;;;29.13;19.40;;;;;;;1.24;100.00;100303.06;5093312;28;20040;-75
2023/02/02 03:45:39;;;;;;;26.83;17.65;;;;;;;0.82;100.00;100318.25;5091921;28;20109;-75
2023/02/02 03:48:05;;;;;;;19.05;12.43;;;;;;;0.34;100.00;100237.41;5092745;28;20036;-77
2023/02/02 03:50:31;;;;;;;14.45;10.25;;;;;;;0.24;100.00;100237.25;5093600;28;20043;-76
2023/02/02 03:52:58;;;;;;;17.08;9.80;;;;;;;1.13;100.00;100309.53;5093682;28;20020;-76
2023/02/02 03:55:23;;;;;;;21.10;14.63;;;;;;;0.48;100.00;100230.13;5090120;28;20501;-77
2023/02/02 03:57:49;;;;;;;21.20;14.68;;;;;;;0.98;100.00;100328.50;5094486;28;20034;-77
2023/02/02 04:00:14;;;;;;;25.58;17.00;;;;;;;0.80;100.00;100274.00;5092906;28;20036;-77
2023/02/02 04:02:39;;;;;;;19.95;14.07;;;;;;;0.27;100.00;100224.78;5093049;28;20034;-76
2023/02/02 04:05:05;;;;;;;14.90;11.65;;;;;;;0.81;100.00;100319.06;5091785;28;20129;-77
2023/02/02 04:07:31;;;;;;;13.02;9.43;;;;;;;0.76;100.00;100289.78;5093190;28;20464;-77
2023/02/02 04:09:56;;;;;;;13.25;9.70;;;;;;;0.39;100.00;100237.50;5093810;28;20056;-77
2023/02/02 04:12:21;;;;;;;14.35;9.95;;;;;;;1.17;100.00;100313.78;5092590;28;20024;-77
2023/02/02 04:14:47;;;;;;;14.57;9.70;;;;;;;0.55;100.00;100217.78;5091789;28;20047;-77
2023/02/02 04:17:12;;;;;;;20.42;13.25;;;;;;;0.80;100.00;100329.91;5093296;28;20035;-76
2023/02/02 04:19:38;;;;;;;19.23;12.07;;;;;;;0.77;100.00;100259.78;5093050;28;20514;-76
2023/02/02 04:22:03;;;;;;;32.15;21.67;;;;;;;0.36;100.00;100253.28;5088117;28;20028;-76
2023/02/02 04:24:28;;;;;;;26.65;13.25;;;;;;;0.01;100.00;100246.81;5086791;28;20046;-73
2023/02/02 04:26:54;;;;;;;24.90;16.60;;;;;;;0.79;100.00;100252.31;5091910;28;20028;-71
2023/02/02 04:29:19;;;;;;;29.02;17.33;;;;;;;0.83;100.00;100254.06;5090850;28;20024;-78
2023/02/02 04:31:44;;;;;;;20.98;13.15;;;;;;;0.18;100.00;100289.63;5078174;28;20090;-77
2023/02/02 04:34:10;;;;;;;18.95;13.07;;;;;;;-0.08;100.00;100244.16;5072290;28;20040;-76
2023/02/02 04:36:35;;;;;;;17.27;12.93;;;;;;;0.30;100.00;100279.84;5073535;28;20028;-76
2023/02/02 04:39:01;;;;;;;23.13;17.17;;;;;;;0.03;100.00;100241.84;5076276;28;20039;-81
2023/02/02 04:41:26;;;;;;;33.88;19.88;;;;;;;0.78;100.00;100318.16;5091915;28;20123;-82
2023/02/02 04:43:51;;;;;;;22.20;13.68;;;;;;;0.83;100.00;100332.44;5086674;28;20024;-81
2023/02/02 04:46:17;;;;;;;16.85;11.73;;;;;;;0.59;100.00;100348.69;5093331;28;20055;-79
2023/02/02 04:48:42;;;;;;;18.52;9.32;;;;;;;0.48;100.00;100355.13;5093188;28;20028;-80
2023/02/02 04:51:13;;;;;;;11.88;8.63;;;;;;;0.69;100.00;100338.84;5088484;28;20119;-77
2023/02/02 04:53:40;;;;;;;18.45;9.48;;;;;;;0.12;100.00;100239.53;5088147;28;20043;-77
2023/02/02 04:56:15;;;;;;;13.52;8.77;;;;;;;0.16;100.00;100257.06;5091621;28;20031;-77
2023/02/02 04:58:41;;;;;;;16.42;10.20;;;;;;;0.61;100.00;100332.06;5092644;28;20082;-77
2023/02/02 05:01:18;;;;;;;13.98;9.75;;;;;;;0.80;100.00;100346.56;5091148;28;20371;-76
2023/02/02 05:03:44;;;;;;;17.30;9.38;;;;;;;0.28;100.00;100244.81;5091804;28;20066;-77
2023/02/02 05:06:09;;;;;;;15.57;9.88;;;;;;;0.69;100.00;100348.88;5092199;28;20123;-81
2023/02/02 05:08:35;;;;;;;16.95;10.57;;;;;;;0.81;100.00;100354.06;5092083;28;20488;-78
2023/02/02 05:11:13;;;;;;;26.45;13.90;;;;;;;0.70;100.00;100352.22;5091282;28;20135;-76
2023/02/02 05:13:38;;;;;;;26.05;14.45;;;;;;;0.92;100.00;100346.75;5092381;28;20028;-78
2023/02/02 05:16:04;;;;;;;27.40;14.90;;;;;;;0.54;100.00;100347.75;5091383;28;20032;-76
2023/02/02 05:18:30;;;;;;;29.75;17.08;;;;;;;0.78;100.00;100346.53;5089762;28;20118;-76
2023/02/02 05:20:59;;;;;;;36.88;20.55;;;;;;;0.59;100.00;100351.19;5089588;28;20028;-74
2023/02/02 05:23:25;;;;;;;32.45;18.85;;;;;;;0.87;100.00;100338.34;5092433;28;20020;-78
2023/02/02 05:25:52;;;;;;;40.83;23.83;;;;;;;0.12;100.00;100272.00;5090895;28;20037;-77
2023/02/02 05:28:17;;;;;;;78.20;39.55;;;;;;;0.18;100.00;100264.63;5089936;28;20059;-77
2023/02/02 05:30:43;;;;;;;85.90;52.47;;;;;;;0.74;100.00;100366.47;5090648;28;20032;-78
2023/02/02 05:33:09;;;;;;;37.88;27.17;;;;;;;0.63;100.00;100350.44;5090208;28;20031;-78
2023/02/02 05:38:09;;;;;;;46.70;31.90;;;;;;;0.16;100.00;100279.56;3765601;22;10001500;-75
2023/02/02 05:40:35;;;;;;;33.53;22.23;;;;;;;0.45;100.00;100257.59;5088145;28;20516;-74
2023/02/02 05:43:01;;;;;;;31.02;20.73;;;;;;;0.30;100.00;100289.84;5073008;28;20118;-77
2023/02/02 05:45:27;;;;;;;27.35;18.77;;;;;;;0.79;100.00;100279.84;5090642;28;20512;-75
2023/02/02 05:47:53;;;;;;;26.17;17.35;;;;;;;0.40;100.00;100284.16;5072694;28;20027;-73
2023/02/02 05:50:19;;;;;;;19.52;12.32;;;;;;;0.60;100.00;100365.38;5071889;28;20035;-73
2023/02/02 05:52:45;;;;;;;29.02;16.40;;;;;;;0.39;100.00;100277.50;5089279;28;20048;-74
2023/02/02 05:55:11;;;;;;;25.23;14.80;;;;;;;0.85;100.00;100357.50;5091061;28;20051;-74
2023/02/02 05:57:36;;;;;;;21.90;15.23;;;;;;;0.74;100.00;100338.94;5073194;28;20028;-74
2023/02/02 06:00:03;;;;;;;21.98;15.00;;;;;;;0.20;100.00;100265.50;5091049;28;20039;-71
2023/02/02 06:02:28;;;;;;;33.88;25.10;;;;;;;1.94;100.00;100376.66;5071985;28;20111;-73
2023/02/02 06:04:54;;;;;;;34.58;23.73;;;;;;;1.69;100.00;100366.31;5090077;28;20147;-73
2023/02/02 06:07:19;;;;;;;41.38;28.15;;;;;;;0.59;100.00;100292.03;5090966;28;20107;-74
2023/02/02 06:09:44;;;;;;;32.58;23.80;;;;;;;0.61;100.00;100382.06;5072949;28;20023;-74
2023/02/02 06:12:10;;;;;;;37.47;25.80;;;;;;;0.86;100.00;100366.66;5090672;28;20548;-72
2023/02/02 06:14:35;;;;;;;39.05;28.23;;;;;;;0.58;100.00;100349.50;5092204;28;20020;-75
2023/02/02 06:17:01;;;;;;;47.13;33.50;;;;;;;0.60;100.00;100375.38;5094949;28;20028;-74
2023/02/02 06:19:26;;;;;;;44.85;31.35;;;;;;;1.05;100.00;100367.84;5095144;28;20035;-74
2023/02/02 06:21:52;;;;;;;42.92;29.90;;;;;;;3.86;100.00;100372.59;5095092;28;20059;-74
2023/02/02 06:24:17;;;;;;;43.97;32.05;;;;;;;3.44;100.00;100345.53;5076961;28;20016;-73
2023/02/02 06:26:42;;;;;;;62.25;42.78;;;;;;;7.93;100.00;100306.47;5094071;28;20028;-74
2023/02/02 06:29:12;;;;;;;54.25;38.63;;;;;;;3.26;100.00;100373.03;5094753;28;20115;-73
2023/02/02 06:31:37;;;;;;;51.17;35.85;;;;;;;4.01;100.00;100278.75;5076313;28;20042;-73
2023/02/02 06:34:02;;;;;;;49.10;35.78;;;;;;;5.10;100.00;100355.28;5077343;28;20024;-74
2023/02/02 06:36:28;;;;;;;66.60;50.28;;;;;;;6.38;100.00;100286.00;5094983;28;20031;-75
2023/02/02 06:38:55;;;;;;;89.43;61.38;;;;;;;8.73;100.00;100280.91;5094496;28;20082;-74
2023/02/02 06:41:22;;;;;;;160.85;83.07;;;;;;;8.67;100.00;100218.47;5095108;28;20075;-73
2023/02/02 06:43:48;;;;;;;94.18;54.67;;;;;;;9.61;100.00;100248.00;5094734;28;20022;-74
2023/02/02 06:46:14;;;;;;;92.32;54.70;;;;;;;10.37;100.00;100277.75;5094385;28;20062;-73
2023/02/02 06:48:39;;;;;;;67.22;44.28;;;;;;;10.16;100.00;100320.59;5094481;28;20024;-73
2023/02/02 06:51:05;;;;;;;60.67;39.67;;;;;;;9.66;100.00;100245.41;5094781;28;20040;-73
2023/02/02 06:53:32;;;;;;;76.38;53.83;;;;;;;9.09;100.00;100261.72;5094921;28;20028;-74
2023/02/02 06:56:00;;;;;;;154.10;105.93;;;;;;;8.63;100.00;100310.63;5075995;28;20032;-74
2023/02/02 06:58:26;;;;;;;75.90;56.85;;;;;;;9.74;100.00;100326.47;5076339;28;20030;-74
2023/02/02 07:00:52;;;;;;;115.55;91.53;;;;;;;10.03;100.00;100237.84;5094429;28;20119;-74
2023/02/02 07:03:20;;;;;;;63.58;43.38;;;;;;;10.15;100.00;100248.59;5094483;28;20161;-73
2023/02/02 07:05:45;;;;;;;41.55;28.52;;;;;;;9.84;100.00;100298.34;5094876;28;20474;-75
2023/02/02 07:08:11;;;;;;;58.13;33.67;;;;;;;10.12;100.00;100289.31;5094159;28;20024;-73
2023/02/02 07:10:37;;;;;;;37.85;24.00;;;;;;;9.28;100.00;100317.16;5094312;28;20470;-72
2023/02/02 07:13:03;;;;;;;28.77;19.52;;;;;;;8.30;100.00;100321.19;5093669;28;20173;-72
2023/02/02 07:15:29;;;;;;;27.35;15.93;;;;;;;7.51;100.00;100310.31;5094124;28;20028;-73
2023/02/02 07:17:54;;;;;;;18.52;13.20;;;;;;;5.73;100.00;100322.44;5093940;28;20028;-72
2023/02/02 07:20:19;;;;;;;20.15;13.50;;;;;;;4.28;100.00;100251.13;5097662;28;20107;-72
2023/02/02 07:22:45;;;;;;;26.95;17.48;;;;;;;5.12;100.00;100331.78;5087742;28;20031;-72
2023/02/02 07:25:10;;;;;;;29.73;18.48;;;;;;;5.52;100.00;100329.22;5111642;28;20032;-73
2023/02/02 07:27:37;;;;;;;21.73;14.98;;;;;;;5.33;100.00;100234.31;5096852;28;20036;-73
2023/02/02 07:30:02;;;;;;;44.63;28.35;;;;;;;5.95;100.00;100303.03;5093918;28;20054;-73
2023/02/02 07:32:28;;;;;;;49.15;26.63;;;;;;;4.92;100.00;100308.28;5093440;28;20040;-72
2023/02/02 07:34:53;;;;;;;27.15;19.58;;;;;;;5.55;100.00;100326.66;5076478;28;20496;-72
2023/02/02 07:37:19;;;;;;;23.33;18.30;;;;;;;5.57;100.00;100300.59;5093548;28;20128;-73
2023/02/02 07:39:44;;;;;;;30.42;18.92;;;;;;;5.63;100.00;100332.53;5075116;28;20035;-72
2023/02/02 07:42:13;;;;;;;27.42;19.95;;;;;;;5.57;100.00;100298.09;5074898;28;20043;-73
2023/02/02 07:44:38;;;;;;;20.00;13.43;;;;;;;5.46;100.00;100327.53;5093220;28;20080;-73
2023/02/02 07:47:04;;;;;;;20.67;15.05;;;;;;;5.43;100.00;100256.13;5075019;28;20463;-73
2023/02/02 07:49:29;;;;;;;22.13;14.85;;;;;;;5.23;100.00;100249.44;5093270;28;20028;-72
2023/02/02 07:51:55;;;;;;;20.60;14.45;;;;;;;5.78;100.00;100337.56;5092564;28;20036;-72
2023/02/02 07:54:20;;;;;;;19.15;13.18;;;;;;;5.95;100.00;100277.81;5092874;28;20481;-72
2023/02/02 07:56:46;;;;;;;21.33;14.93;;;;;;;5.48;100.00;100235.09;5092907;28;20111;-72
2023/02/02 07:59:12;;;;;;;22.67;17.27;;;;;;;5.71;100.00;100311.50;5092684;28;20024;-72
2023/02/02 08:01:37;;;;;;;25.45;18.30;;;;;;;6.10;100.00;100283.63;5074649;28;20039;-72
2023/02/02 08:04:03;;;;;;;27.00;19.50;;;;;;;5.45;100.00;100256.97;5072682;28;20036;-73
2023/02/02 08:06:34;;;;;;;28.08;18.83;;;;;;;6.06;100.00;100334.94;5072731;28;20094;-75
2023/02/02 08:09:00;;;;;;;27.23;19.07;;;;;;;6.36;100.00;100331.44;5066997;28;20040;-73
2023/02/02 08:11:27;;;;;;;36.83;26.27;;;;;;;6.32;100.00;100346.63;5071808;28;20043;-73
2023/02/02 08:13:55;;;;;;;31.52;23.77;;;;;;;6.54;100.00;100351.53;5054092;28;20044;-73
2023/02/02 08:16:22;;;;;;;28.52;19.42;;;;;;;6.27;100.00;100351.69;5054383;28;20029;-73
2023/02/02 08:18:47;;;;;;;35.22;26.83;;;;;;;5.97;100.00;100258.44;5071770;28;20037;-73
2023/02/02 08:21:12;;;;;;;55.55;39.13;;;;;;;6.39;100.00;100277.56;5072216;28;20464;-73
2023/02/02 08:23:40;;;;;;;49.90;36.70;;;;;;;6.21;100.00;100194.38;5053853;28;20033;-74
2023/02/02 08:26:15;;;;;;;29.45;21.77;;;;;;;6.83;100.00;100273.84;5072587;28;20478;-74
2023/02/02 08:28:42;;;;;;;20.92;14.43;;;;;;;6.90;100.00;100259.50;5072019;28;20513;-73
2023/02/02 08:31:14;;;;;;;18.30;11.80;;;;;;;7.73;100.00;100326.94;5072028;28;20044;-74
2023/02/02 08:33:40;;;;;;;18.13;12.32;;;;;;;7.44;100.00;100319.66;5072030;28;20051;-74
2023/02/02 08:36:17;;;;;;;15.55;10.85;;;;;;;7.33;100.00;100250.63;5071825;28;20024;-73
2023/02/02 08:38:45;;;;;;;23.27;15.73;;;;;;;7.95;100.00;100318.25;5052892;28;20049;-73
2023/02/02 08:41:14;;;;;;;16.98;10.52;;;;;;;8.31;100.00;100316.97;5071804;28;20028;-73
2023/02/02 08:43:40;;;;;;;12.35;7.53;;;;;;;7.35;100.00;100193.31;5070326;28;20028;-73
2023/02/02 08:46:06;;;;;;;10.80;7.63;;;;;;;8.33;100.00;100305.97;5071639;28;20033;-72
2023/02/02 08:48:34;;;;;;;12.48;6.80;;;;;;;8.07;100.00;100299.53;5071509;28;20041;-73
2023/02/02 08:51:00;;;;;;;21.38;13.60;;;;;;;8.22;100.00;100274.84;5069105;28;20090;-72
2023/02/02 08:53:26;;;;;;;18.20;9.65;;;;;;;8.14;100.00;100240.38;5070503;28;20028;-73
2023/02/02 08:56:06;;;;;;;26.90;14.55;;;;;;;8.43;100.00;100267.00;5069583;28;20028;-73
2023/02/02 08:58:33;;;;;;;44.08;25.70;;;;;;;8.44;100.00;100217.16;5052403;28;20028;-73
2023/02/02 09:01:13;;;;;;;17.52;10.60;;;;;;;9.03;100.00;100310.00;5071036;28;20424;-73
2023/02/02 09:03:39;;;;;;;11.77;7.00;;;;;;;9.06;100.00;100252.44;5070372;28;20521;-73
2023/02/02 09:06:18;;;;;;;10.75;4.88;;;;;;;9.24;100.00;100309.63;5070429;28;20111;-72
2023/02/02 09:08:45;;;;;;;12.40;6.53;;;;;;;9.90;100.00;100299.91;5070881;28;20033;-72
2023/02/02 09:11:18;;;;;;;9.32;4.82;;;;;;;10.00;100.00;100279.34;5070844;28;20062;-72
2023/02/02 09:13:45;;;;;;;23.45;11.60;;;;;;;10.10;100.00;100296.13;5070448;28;20031;-72
2023/02/02 09:16:12;;;;;;;12.73;5.80;;;;;;;9.73;100.00;100282.47;5069931;28;20028;-72
2023/02/02 09:18:39;;;;;;;8.93;4.18;;;;;;;10.05;100.00;100257.25;5070557;28;20036;-72
2023/02/02 09:21:10;;;;;;;9.43;4.80;;;;;;;10.07;100.00;100235.19;5070071;28;20036;-72
2023/02/02 09:23:37;;;;;;;9.02;4.88;;;;;;;10.09;100.00;100263.94;5070492;28;20112;-72
2023/02/02 09:26:17;;;;;;;9.13;4.25;;;;;;;10.29;100.00;100276.25;5071061;28;20040;-72
2023/02/02 09:28:45;;;;;;;11.32;3.55;;;;;;;9.40;100.00;100186.69;5070296;28;20029;-71
2023/02/02 09:31:11;;;;;;;7.85;3.03;;;;;;;9.91;100.00;100253.31;5069036;28;20028;-71
2023/02/02 09:33:37;;;;;;;8.93;4.93;;;;;;;10.01;100.00;100258.19;5052758;28;20447;-71
2023/02/02 09:36:20;;;;;;;6.80;3.20;;;;;;;10.10;100.00;100258.00;5068351;28;20578;-72
2023/02/02 09:38:46;;;;;;;7.60;3.33;;;;;;;9.61;100.00;100188.78;5070006;28;20119;-72
2023/02/02 09:41:36;;;;;;;7.15;3.28;;;;;;;9.77;100.00;100257.84;5051837;28;20033;-72
2023/02/02 09:44:20;;;;;;;7.10;3.30;;;;;;;10.18;100.00;100255.34;5070555;28;20066;-72
2023/02/02 09:47:06;;;;;;;9.02;4.18;;;;;;;10.37;100.00;100244.72;5070202;28;20029;-72
2023/02/02 09:50:00;;;;;;;7.70;3.30;;;;;;;10.39;100.00;100237.91;5068734;28;20086;-72
2023/02/02 09:52:32;;;;;;;7.03;3.80;;;;;;;10.70;100.00;100216.81;5070041;28;20036;-72
2023/02/02 09:55:03;;;;;;;8.38;5.63;;;;;;;10.41;100.00;100123.50;5070359;28;20028;-73
2023/02/02 09:57:36;;;;;;;4.07;2.17;;;;;;;10.92;100.00;100203.53;5069364;28;20123;-73
2023/02/02 10:00:04;;;;;;;6.63;3.00;;;;;;;11.28;100.00;100214.44;5069122;28;20036;-72
2023/02/02 10:02:48;;;;;;;5.78;2.03;;;;;;;11.20;100.00;100207.03;4725181;28;10000333;-72
2023/02/02 10:05:19;;;;;;;7.40;3.20;;;;;;;11.25;100.00;100209.44;5071285;28;20111;-73
2023/02/02 10:07:50;;;;;;;7.80;4.25;;;;;;;11.48;100.00;100181.63;5053750;28;20112;-72
2023/02/02 10:10:25;;;;;;;4.95;3.03;;;;;;;11.24;100.00;100109.34;5071425;28;20041;-70
2023/02/02 10:12:50;;;;;;;7.00;3.20;;;;;;;11.40;100.00;100195.44;5072260;28;20063;-71
2023/02/02 10:15:38;;;;;;;5.22;2.40;;;;;;;11.30;100.00;100175.34;5071951;28;20024;-72
2023/02/02 10:18:03;;;;;;;22.92;15.00;;;;;;;12.15;100.00;100176.25;5071815;28;20033;-72
2023/02/02 10:20:43;;;;;;;6.72;3.58;;;;;;;12.11;100.00;100161.94;5072256;28;20016;-72
2023/02/02 10:23:14;;;;;;;2.50;1.90;;;;;;;11.75;100.00;100160.50;5054490;28;20106;-72
2023/02/02 10:25:51;;;;;;;3.37;2.33;;;;;;;11.63;100.00;100098.84;5072052;28;20029;-72
2023/02/02 10:28:18;;;;;;;7.95;3.90;;;;;;;11.49;100.00;100101.81;5071617;28;20051;-72
2023/02/02 10:34:20;;;;;;;6.43;2.92;;;;;;;11.94;100.00;100161.59;5072148;28;20035;-73
2023/02/02 10:37:01;;;;;;;4.30;3.05;;;;;;;12.33;100.00;100166.34;5053665;28;20028;-73
2023/02/02 10:39:41;;;;;;;4.63;2.28;;;;;;;12.22;100.00;100143.75;5053430;28;20068;-73
2023/02/02 10:42:18;;;;;;;9.07;4.28;;;;;;;12.44;100.00;100177.03;5053898;28;20452;-71
2023/02/02 10:44:53;;;;;;;6.53;3.05;;;;;;;12.00;100.00;100163.13;5070222;28;20025;-72
2023/02/02 10:47:38;;;;;;;5.72;2.10;;;;;;;12.55;100.00;100192.81;5053754;28;20115;-72
2023/02/02 10:50:19;;;;;;;5.97;2.30;;;;;;;11.37;100.00;100058.91;5070728;28;20064;-72
2023/02/02 10:53:05;;;;;;;3.47;1.65;;;;;;;12.08;100.00;100192.59;5071717;28;20025;-72
2023/02/02 10:55:34;;;;;;;2.33;1.40;;;;;;;12.05;100.00;100190.16;5071467;28;20031;-72
2023/02/02 10:58:03;;;;;;;5.00;1.80;;;;;;;12.50;100.00;100171.75;5071903;28;20027;-72
2023/02/02 11:00:45;;;;;;;11.98;6.25;;;;;;;12.40;100.00;100172.91;5071370;28;20033;-72
2023/02/02 11:03:13;;;;;;;6.60;3.42;;;;;;;11.96;100.00;100159.03;5056654;28;20053;-71
2023/02/02 11:08:32;;;;;;;10.75;4.78;;;;;;;12.57;100.00;100165.53;5075014;28;20478;-72
2023/02/02 11:11:09;;;;;;;3.63;1.67;;;;;;;12.08;100.00;100082.19;5074888;28;20493;-72
2023/02/02 11:13:41;;;;;;;6.38;1.90;;;;;;;12.06;100.00;100055.94;5056507;28;20017;-72
2023/02/02 11:16:15;;;;;;;4.78;1.88;;;;;;;12.40;100.00;100143.13;5075143;28;20466;-72
2023/02/02 11:18:42;;;;;;;4.57;2.55;;;;;;;12.26;100.00;100129.19;5056262;28;20040;-72
2023/02/02 11:21:21;;;;;;;13.40;6.88;;;;;;;12.43;100.00;100143.06;5056638;28;20035;-72
2023/02/02 11:24:06;;;;;;;3.13;1.85;;;;;;;12.03;100.00;100122.25;5074917;28;20032;-72
2023/02/02 11:26:49;;;;;;;5.75;3.90;;;;;;;12.47;100.00;100108.06;5074739;28;20029;-72
2023/02/02 11:29:20;;;;;;;5.00;2.47;;;;;;;12.44;100.00;100116.66;5055998;28;20020;-72
2023/02/02 11:31:46;;;;;;;3.80;2.37;;;;;;;12.33;100.00;100029.50;5073400;28;20025;-72
2023/02/02 11:34:17;;;;;;;3.00;2.10;;;;;;;12.28;100.00;100033.09;5073379;28;20108;-72
2023/02/02 11:40:33;;;;;;;5.65;2.70;;;;;;;12.19;100.00;100118.34;5064609;28;20051;-71
2023/02/02 11:43:02;;;;;;;9.15;4.97;;;;;;;11.97;100.00;100057.06;5074381;28;20033;-72